createdAt,value
2023-02-21T00:00:47.990Z,998.54
2023-02-21T00:01:47.988Z,998.56
2023-02-21T00:02:47.959Z,998.53
2023-02-21T00:03:47.939Z,998.60
2023-02-21T00:04:47.924Z,998.58
2023-02-21T00:05:47.981Z,998.62
2023-02-21T00:06:47.888Z,998.61
2023-02-21T00:07:47.886Z,998.62
2023-02-21T00:08:47.855Z,998.60
2023-02-21T00:09:47.840Z,998.62
2023-02-21T00:10:47.825Z,998.63
2023-02-21T00:11:47.805Z,998.62
2023-02-21T00:12:47.789Z,998.63
2023-02-21T00:13:47.809Z,998.58
2023-02-21T00:14:47.763Z,998.56
2023-02-21T00:15:47.739Z,998.59
2023-02-21T00:16:47.769Z,998.56
2023-02-21T00:17:47.704Z,998.51
2023-02-21T00:18:47.687Z,998.56
2023-02-21T00:19:47.684Z,998.57
2023-02-21T00:20:47.652Z,998.54
2023-02-21T00:21:47.640Z,998.51
2023-02-21T00:22:47.626Z,998.52
2023-02-21T00:23:47.605Z,998.53
2023-02-21T00:24:47.612Z,998.54
2023-02-21T00:25:47.574Z,998.55
2023-02-21T00:26:47.550Z,998.54
2023-02-21T00:27:47.538Z,998.56
2023-02-21T00:28:47.522Z,998.57
2023-02-21T00:29:47.501Z,998.54
2023-02-21T00:30:47.600Z,998.56
2023-02-21T00:31:47.462Z,998.54
2023-02-21T00:32:47.525Z,998.56
2023-02-21T00:33:47.442Z,998.50
2023-02-21T00:34:47.417Z,998.54
2023-02-21T00:35:47.397Z,998.53
2023-02-21T00:36:47.383Z,998.49
2023-02-21T00:37:47.360Z,998.55
2023-02-21T00:38:47.344Z,998.52
2023-02-21T00:39:47.335Z,998.50
2023-02-21T00:40:47.320Z,998.53
2023-02-21T00:41:47.292Z,998.55
2023-02-21T00:42:47.280Z,998.49
2023-02-21T00:43:47.268Z,998.52
2023-02-21T00:44:47.241Z,998.50
2023-02-21T00:45:47.288Z,998.47
2023-02-21T00:46:47.210Z,998.46
2023-02-21T00:47:47.185Z,998.45
2023-02-21T00:48:47.176Z,998.47
2023-02-21T00:49:47.161Z,998.44
2023-02-21T00:50:47.146Z,998.46
2023-02-21T00:51:47.142Z,998.53
2023-02-21T00:52:47.102Z,998.57
2023-02-21T00:53:47.087Z,998.53
2023-02-21T00:54:47.530Z,998.52
2023-02-21T00:55:47.049Z,998.49
2023-02-21T00:56:47.041Z,998.54
2023-02-21T00:57:47.024Z,998.52
2023-02-21T00:58:46.998Z,998.47
2023-02-21T00:59:46.987Z,998.45
2023-02-21T01:00:46.972Z,998.48
2023-02-21T01:01:47.060Z,998.44
2023-02-21T01:02:46.941Z,998.43
2023-02-21T01:03:46.920Z,998.45
2023-02-21T01:04:46.900Z,998.41
2023-02-21T01:05:46.889Z,998.44
2023-02-21T01:06:46.865Z,998.42
2023-02-21T01:07:46.846Z,998.43
2023-02-21T01:08:46.835Z,998.41
2023-02-21T01:09:46.810Z,998.39
2023-02-21T01:10:46.801Z,998.41
2023-02-21T01:11:46.778Z,998.42
2023-02-21T01:12:46.768Z,998.44
2023-02-21T01:13:46.750Z,998.39
2023-02-21T01:14:46.750Z,998.46
2023-02-21T01:15:46.785Z,998.45
2023-02-21T01:16:46.694Z,998.47
2023-02-21T01:17:46.703Z,998.47
2023-02-21T01:18:46.664Z,998.48
2023-02-21T01:19:46.640Z,998.49
2023-02-21T01:20:46.628Z,998.47
2023-02-21T01:21:46.607Z,998.50
2023-02-21T01:22:46.635Z,998.41
2023-02-21T01:23:46.596Z,998.49
2023-02-21T01:24:46.557Z,998.45
2023-02-21T01:25:46.550Z,998.43
2023-02-21T01:26:46.522Z,998.45
2023-02-21T01:27:46.511Z,998.47
2023-02-21T01:28:46.484Z,998.53
2023-02-21T01:29:46.474Z,998.50
2023-02-21T01:30:46.476Z,998.49
2023-02-21T01:31:46.478Z,998.51
2023-02-21T01:32:46.417Z,998.50
2023-02-21T01:33:46.415Z,998.46
2023-02-21T01:34:46.408Z,998.50
2023-02-21T01:35:46.369Z,998.44
2023-02-21T01:36:46.356Z,998.46
2023-02-21T01:42:05.958Z,998.51
2023-02-21T01:43:05.743Z,998.51
2023-02-21T01:45:42.256Z,998.45
2023-02-21T01:46:42.169Z,998.45
2023-02-21T01:52:48.946Z,998.48
2023-02-21T01:53:48.843Z,998.47
2023-02-21T01:55:53.616Z,998.45
2023-02-21T01:56:53.591Z,998.42
2023-02-21T01:57:53.512Z,998.42
2023-02-21T01:58:53.609Z,998.42
2023-02-21T02:00:01.649Z,998.43
2023-02-21T02:02:25.540Z,998.41
2023-02-21T02:03:23.649Z,998.37
2023-02-21T02:05:24.080Z,998.36
2023-02-21T02:06:32.829Z,998.30
2023-02-21T02:08:32.384Z,998.30
2023-02-21T02:09:32.403Z,998.31
2023-02-21T02:11:41.433Z,998.32
2023-02-21T02:12:41.452Z,998.32
2023-02-21T02:18:56.958Z,998.27
2023-02-21T02:19:56.948Z,998.27
2023-02-21T02:22:02.543Z,998.29
2023-02-21T02:23:02.495Z,998.26
2023-02-21T02:28:47.803Z,998.21
2023-02-21T02:29:47.774Z,998.21
2023-02-21T02:32:23.808Z,998.21
2023-02-21T02:33:23.804Z,998.22
2023-02-21T02:34:23.848Z,998.23
2023-02-21T02:35:23.798Z,998.21
2023-02-21T02:36:23.833Z,998.25
2023-02-21T02:37:23.700Z,998.17
2023-02-21T02:38:23.686Z,998.22
2023-02-21T02:39:23.657Z,998.21
2023-02-21T02:40:23.636Z,998.19
2023-02-21T02:41:23.618Z,998.20
2023-02-21T02:42:23.600Z,998.16
2023-02-21T02:43:23.593Z,998.13
2023-02-21T02:44:23.577Z,998.13
2023-02-21T02:45:23.564Z,998.14
2023-02-21T02:46:23.629Z,998.11
2023-02-21T02:47:23.527Z,998.16
2023-02-21T02:48:23.493Z,998.13
2023-02-21T02:49:23.481Z,998.13
2023-02-21T02:50:23.452Z,998.10
2023-02-21T02:51:23.442Z,998.10
2023-02-21T02:52:23.416Z,998.08
2023-02-21T02:53:23.415Z,998.09
2023-02-21T02:54:23.377Z,998.06
2023-02-21T02:55:23.365Z,998.03
2023-02-21T02:56:23.353Z,998.03
2023-02-21T02:57:23.326Z,998.04
2023-02-21T02:58:23.307Z,998.03
2023-02-21T02:59:23.297Z,998.09
2023-02-21T03:00:23.280Z,998.03
2023-02-21T03:01:23.292Z,998.02
2023-02-21T03:02:23.258Z,998.01
2023-02-21T03:03:23.258Z,998.00
2023-02-21T03:04:23.205Z,998.00
2023-02-21T03:05:23.189Z,997.98
2023-02-21T03:06:23.166Z,997.99
2023-02-21T03:07:23.148Z,997.99
2023-02-21T03:08:23.123Z,997.96
2023-02-21T03:09:23.131Z,998.02
2023-02-21T03:10:23.092Z,997.98
2023-02-21T03:11:23.073Z,998.02
2023-02-21T03:12:23.091Z,998.05
2023-02-21T03:13:23.038Z,998.03
2023-02-21T03:14:23.014Z,998.05
2023-02-21T03:15:22.996Z,998.09
2023-02-21T03:16:23.046Z,998.09
2023-02-21T03:17:22.962Z,998.07
2023-02-21T03:18:22.945Z,998.05
2023-02-21T03:19:22.942Z,998.10
2023-02-21T03:20:22.910Z,998.11
2023-02-21T03:21:22.889Z,998.11
2023-02-21T03:22:22.871Z,998.14
2023-02-21T03:23:22.855Z,998.10
2023-02-21T03:24:22.833Z,998.14
2023-02-21T03:25:22.818Z,998.13
2023-02-21T03:26:22.797Z,998.14
2023-02-21T03:27:22.779Z,998.16
2023-02-21T03:28:22.760Z,998.14
2023-02-21T03:29:22.745Z,998.16
2023-02-21T03:30:22.795Z,998.17
2023-02-21T03:31:22.728Z,998.13
2023-02-21T03:32:22.732Z,998.03
2023-02-21T03:33:22.668Z,998.04
2023-02-21T03:34:22.651Z,998.06
2023-02-21T03:35:22.631Z,998.07
2023-02-21T03:36:22.621Z,998.08
2023-02-21T03:37:22.600Z,998.08
2023-02-21T03:38:30.254Z,998.09
2023-02-21T03:40:27.014Z,998.07
2023-02-21T03:41:26.978Z,998.07
2023-02-21T03:43:31.427Z,998.09
2023-02-21T03:44:31.393Z,998.10
2023-02-21T03:46:35.877Z,998.13
2023-02-21T03:47:35.847Z,998.11
2023-02-21T03:49:30.203Z,998.10
2023-02-21T03:50:30.160Z,998.11
2023-02-21T03:52:34.630Z,998.04
2023-02-21T03:53:34.591Z,998.05
2023-02-21T03:54:34.572Z,998.04
2023-02-21T03:55:34.549Z,998.10
2023-02-21T03:56:41.976Z,998.04
2023-02-21T03:57:34.514Z,998.05
2023-02-21T03:58:35.619Z,998.04
2023-02-21T03:59:34.545Z,998.03
2023-02-21T04:00:34.460Z,998.05
2023-02-21T04:01:34.440Z,998.00
2023-02-21T04:02:34.421Z,998.01
2023-02-21T04:03:34.411Z,998.00
2023-02-21T04:04:34.383Z,997.99
2023-02-21T04:05:34.370Z,998.04
2023-02-21T04:06:34.351Z,998.00
2023-02-21T04:07:34.333Z,998.01
2023-02-21T04:08:34.327Z,997.96
2023-02-21T04:09:34.330Z,997.97
2023-02-21T04:10:38.194Z,997.99
2023-02-21T04:11:34.270Z,997.98
2023-02-21T04:12:34.248Z,997.96
2023-02-21T04:13:34.229Z,997.98
2023-02-21T04:14:34.205Z,998.00
2023-02-21T04:15:34.189Z,997.99
2023-02-21T04:16:34.208Z,997.99
2023-02-21T04:17:34.153Z,997.98
2023-02-21T04:18:36.227Z,997.96
2023-02-21T04:19:34.122Z,997.95
2023-02-21T04:20:34.129Z,997.98
2023-02-21T04:21:34.084Z,997.96
2023-02-21T04:22:34.072Z,997.98
2023-02-21T04:23:34.048Z,997.94
2023-02-21T04:24:34.028Z,997.95
2023-02-21T04:25:34.013Z,997.93
2023-02-21T04:26:34.032Z,997.97
2023-02-21T04:27:34.001Z,997.98
2023-02-21T04:28:33.963Z,997.92
2023-02-21T04:29:33.946Z,997.95
2023-02-21T04:30:33.962Z,997.93
2023-02-21T04:31:33.929Z,997.89
2023-02-21T04:32:33.900Z,997.88
2023-02-21T04:33:33.870Z,997.94
2023-02-21T04:34:33.852Z,997.93
2023-02-21T04:35:33.832Z,997.91
2023-02-21T04:36:33.815Z,998.02
2023-02-21T04:37:33.796Z,998.05
2023-02-21T04:38:33.777Z,998.03
2023-02-21T04:39:33.760Z,998.06
2023-02-21T04:40:33.746Z,998.04
2023-02-21T04:41:33.726Z,998.06
2023-02-21T04:42:33.712Z,998.03
2023-02-21T04:43:33.690Z,998.01
2023-02-21T04:44:33.674Z,998.08
2023-02-21T04:45:33.681Z,998.00
2023-02-21T04:46:33.634Z,998.01
2023-02-21T04:47:33.619Z,997.99
2023-02-21T04:48:33.600Z,997.96
2023-02-21T04:49:33.582Z,997.97
2023-02-21T04:50:33.563Z,997.99
2023-02-21T04:51:33.546Z,997.95
2023-02-21T04:52:33.540Z,997.95
2023-02-21T04:53:33.519Z,997.91
2023-02-21T04:54:33.491Z,997.93
2023-02-21T04:55:33.484Z,997.91
2023-02-21T04:56:33.482Z,997.91
2023-02-21T04:57:33.442Z,997.94
2023-02-21T04:58:43.381Z,997.99
2023-02-21T04:59:33.408Z,998.02
2023-02-21T05:00:33.387Z,998.04
2023-02-21T05:01:33.422Z,998.01
2023-02-21T05:02:33.357Z,998.04
2023-02-21T05:03:33.338Z,998.01
2023-02-21T05:04:33.372Z,998.04
2023-02-21T05:05:33.295Z,998.02
2023-02-21T05:06:33.280Z,998.01
2023-02-21T05:07:33.264Z,998.00
2023-02-21T05:08:33.262Z,997.96
2023-02-21T05:09:33.255Z,998.02
2023-02-21T05:10:44.966Z,997.95
2023-02-21T05:11:33.190Z,997.97
2023-02-21T05:12:33.179Z,997.95
2023-02-21T05:13:33.166Z,997.90
2023-02-21T05:14:33.136Z,997.89
2023-02-21T05:15:33.116Z,997.87
2023-02-21T05:16:33.154Z,997.86
2023-02-21T05:17:33.086Z,997.89
2023-02-21T05:18:33.070Z,997.87
2023-02-21T05:19:33.046Z,997.80
2023-02-21T05:20:33.032Z,997.80
2023-02-21T05:21:33.018Z,997.82
2023-02-21T05:22:32.997Z,997.79
2023-02-21T05:23:32.981Z,997.77
2023-02-21T05:24:32.962Z,997.78
2023-02-21T05:25:32.953Z,997.79
2023-02-21T05:26:32.981Z,997.79
2023-02-21T05:27:32.912Z,997.82
2023-02-21T05:28:32.897Z,997.81
2023-02-21T05:29:32.875Z,997.78
2023-02-21T05:30:32.993Z,997.77
2023-02-21T05:31:32.975Z,997.75
2023-02-21T05:32:32.824Z,997.77
2023-02-21T05:33:32.800Z,997.78
2023-02-21T05:34:32.788Z,997.73
2023-02-21T05:35:32.773Z,997.74
2023-02-21T05:36:32.751Z,997.72
2023-02-21T05:37:32.734Z,997.72
2023-02-21T05:38:32.721Z,997.69
2023-02-21T05:39:32.795Z,997.72
2023-02-21T05:40:32.687Z,997.68
2023-02-21T05:41:32.670Z,997.66
2023-02-21T05:42:32.653Z,997.64
2023-02-21T05:43:32.631Z,997.67
2023-02-21T05:44:32.645Z,997.61
2023-02-21T05:45:32.612Z,997.64
2023-02-21T05:46:32.590Z,997.66
2023-02-21T05:47:32.567Z,997.65
2023-02-21T05:48:32.552Z,997.62
2023-02-21T05:49:32.529Z,997.61
2023-02-21T05:50:32.514Z,997.63
2023-02-21T05:51:32.499Z,997.60
2023-02-21T05:52:32.485Z,997.61
2023-02-21T05:53:32.461Z,997.59
2023-02-21T05:54:32.447Z,997.61
2023-02-21T05:55:32.423Z,997.63
2023-02-21T05:56:32.406Z,997.62
2023-02-21T05:57:32.385Z,997.63
2023-02-21T05:58:32.373Z,997.65
2023-02-21T05:59:32.369Z,997.65
2023-02-21T06:00:32.338Z,997.66
2023-02-21T06:01:32.318Z,997.63
2023-02-21T06:02:32.317Z,997.60
2023-02-21T06:03:32.308Z,997.67
2023-02-21T06:04:32.321Z,997.64
2023-02-21T06:05:32.253Z,997.66
2023-02-21T06:06:32.242Z,997.65
2023-02-21T06:07:32.213Z,997.66
2023-02-21T06:08:32.196Z,997.67
2023-02-21T06:09:32.192Z,997.63
2023-02-21T06:10:32.163Z,997.67
2023-02-21T06:11:32.152Z,997.63
2023-02-21T06:12:32.127Z,997.58
2023-02-21T06:13:32.991Z,997.65
2023-02-21T06:14:32.091Z,997.60
2023-02-21T06:15:32.131Z,997.57
2023-02-21T06:16:32.065Z,997.59
2023-02-21T06:17:32.039Z,997.53
2023-02-21T06:18:32.024Z,997.58
2023-02-21T06:19:33.483Z,997.58
2023-02-21T06:20:31.992Z,997.59
2023-02-21T06:21:31.974Z,997.59
2023-02-21T06:22:31.953Z,997.60
2023-02-21T06:23:31.934Z,997.59
2023-02-21T06:24:31.925Z,997.59
2023-02-21T06:25:31.901Z,997.59
2023-02-21T06:26:31.885Z,997.57
2023-02-21T06:27:31.864Z,997.55
2023-02-21T06:28:31.848Z,997.57
2023-02-21T06:29:31.831Z,997.57
2023-02-21T06:30:31.867Z,997.58
2023-02-21T06:31:31.839Z,997.61
2023-02-21T06:32:31.782Z,997.60
2023-02-21T06:33:31.773Z,997.61
2023-02-21T06:34:31.747Z,997.60
2023-02-21T06:35:31.727Z,997.60
2023-02-21T06:36:31.714Z,997.60
2023-02-21T06:37:31.708Z,997.59
2023-02-21T06:38:31.683Z,997.58
2023-02-21T06:39:31.661Z,997.60
2023-02-21T06:40:31.644Z,997.58
2023-02-21T06:41:31.639Z,997.60
2023-02-21T06:42:31.612Z,997.58
2023-02-21T06:43:31.596Z,997.65
2023-02-21T06:44:31.576Z,997.64
2023-02-21T06:45:31.575Z,997.67
2023-02-21T06:46:31.600Z,997.64
2023-02-21T06:47:31.529Z,997.69
2023-02-21T06:48:31.513Z,997.72
2023-02-21T06:49:31.492Z,997.74
2023-02-21T06:50:31.486Z,997.73
2023-02-21T06:51:31.458Z,997.70
2023-02-21T06:52:31.441Z,997.79
2023-02-21T06:53:31.421Z,997.74
2023-02-21T06:54:31.401Z,997.76
2023-02-21T06:55:31.384Z,997.76
2023-02-21T06:56:31.369Z,997.72
2023-02-21T06:57:31.371Z,997.75
2023-02-21T06:58:31.334Z,997.73
2023-02-21T06:59:31.319Z,997.78
2023-02-21T07:00:31.318Z,997.75
2023-02-21T07:01:31.318Z,997.81
2023-02-21T07:02:31.271Z,997.75
2023-02-21T07:03:31.247Z,997.81
2023-02-21T07:04:31.269Z,997.83
2023-02-21T07:05:31.211Z,997.83
2023-02-21T07:06:31.198Z,997.79
2023-02-21T07:07:31.174Z,997.84
2023-02-21T07:08:31.155Z,997.86
2023-02-21T07:09:31.145Z,997.94
2023-02-21T07:10:31.121Z,997.84
2023-02-21T07:11:31.104Z,997.84
2023-02-21T07:12:31.090Z,997.87
2023-02-21T07:13:31.069Z,997.87
2023-02-21T07:14:31.061Z,997.90
2023-02-21T07:15:31.047Z,997.91
2023-02-21T07:16:31.012Z,997.95
2023-02-21T07:17:31.043Z,997.96
2023-02-21T07:18:30.982Z,997.95
2023-02-21T07:19:30.962Z,997.97
2023-02-21T07:20:30.946Z,997.92
2023-02-21T07:21:30.935Z,997.94
2023-02-21T07:22:30.910Z,997.97
2023-02-21T07:23:30.894Z,997.98
2023-02-21T07:24:30.880Z,997.96
2023-02-21T07:25:30.867Z,997.99
2023-02-21T07:26:30.861Z,997.95
2023-02-21T07:27:30.829Z,997.95
2023-02-21T07:28:30.806Z,997.98
2023-02-21T07:29:30.788Z,997.96
2023-02-21T07:30:30.825Z,997.95
2023-02-21T07:31:30.871Z,997.97
2023-02-21T07:32:30.740Z,997.97
2023-02-21T07:33:30.722Z,997.96
2023-02-21T07:34:30.712Z,997.98
2023-02-21T07:35:30.686Z,998.03
2023-02-21T07:36:30.671Z,997.97
2023-02-21T07:37:30.655Z,998.00
2023-02-21T07:38:30.637Z,997.96
2023-02-21T07:39:30.624Z,998.00
2023-02-21T07:40:30.604Z,998.05
2023-02-21T07:41:30.603Z,998.01
2023-02-21T07:42:30.585Z,998.02
2023-02-21T07:43:30.553Z,998.04
2023-02-21T07:44:30.545Z,998.07
2023-02-21T07:45:30.520Z,998.06
2023-02-21T07:46:30.550Z,998.10
2023-02-21T07:47:30.491Z,998.06
2023-02-21T07:48:30.473Z,998.07
2023-02-21T07:49:30.454Z,998.10
2023-02-21T07:50:30.442Z,998.10
2023-02-21T07:51:30.429Z,998.09
2023-02-21T07:52:30.408Z,998.07
2023-02-21T07:53:30.394Z,998.09
2023-02-21T07:54:30.374Z,998.08
2023-02-21T07:55:30.356Z,998.06
2023-02-21T07:56:30.341Z,998.08
2023-02-21T07:57:30.322Z,998.08
2023-02-21T07:58:30.308Z,998.09
2023-02-21T07:59:30.289Z,998.12
2023-02-21T08:00:30.279Z,998.14
2023-02-21T08:01:30.308Z,998.15
2023-02-21T08:02:30.244Z,998.12
2023-02-21T08:03:30.225Z,998.17
2023-02-21T08:04:30.238Z,998.18
2023-02-21T08:05:30.195Z,998.13
2023-02-21T08:06:30.180Z,998.13
2023-02-21T08:07:30.157Z,998.12
2023-02-21T08:08:30.479Z,998.10
2023-02-21T08:09:30.132Z,998.10
2023-02-21T08:10:30.117Z,998.09
2023-02-21T08:11:30.095Z,998.09
2023-02-21T08:12:30.081Z,998.12
2023-02-21T08:13:30.082Z,998.17
2023-02-21T08:14:30.078Z,998.14
2023-02-21T08:15:30.031Z,998.19
2023-02-21T08:16:30.087Z,998.18
2023-02-21T08:17:30.000Z,998.16
2023-02-21T08:18:29.984Z,998.15
2023-02-21T08:19:29.977Z,998.12
2023-02-21T08:20:29.952Z,998.11
2023-02-21T08:21:29.936Z,998.13
2023-02-21T08:22:29.921Z,998.13
2023-02-21T08:23:29.904Z,998.17
2023-02-21T08:24:29.923Z,998.17
2023-02-21T08:25:29.873Z,998.15
2023-02-21T08:26:29.860Z,998.13
2023-02-21T08:27:29.839Z,998.12
2023-02-21T08:28:29.829Z,998.12
2023-02-21T08:29:29.813Z,998.14
2023-02-21T08:30:29.841Z,998.10
2023-02-21T08:31:29.816Z,998.16
2023-02-21T08:32:29.805Z,998.09
2023-02-21T08:33:31.560Z,998.06
2023-02-21T08:34:29.732Z,998.08
2023-02-21T08:35:29.733Z,998.13
2023-02-21T08:36:29.729Z,998.06
2023-02-21T08:37:29.731Z,998.05
2023-02-21T08:38:29.674Z,998.07
2023-02-21T08:39:29.660Z,998.04
2023-02-21T08:40:29.641Z,998.03
2023-02-21T08:41:29.628Z,998.03
2023-02-21T08:42:29.612Z,998.05
2023-02-21T08:43:29.599Z,998.04
2023-02-21T08:44:29.590Z,998.03
2023-02-21T08:45:29.569Z,997.96
2023-02-21T08:46:29.599Z,998.02
2023-02-21T08:47:29.567Z,997.98
2023-02-21T08:48:29.525Z,997.98
2023-02-21T08:49:29.508Z,997.99
2023-02-21T08:50:29.495Z,998.00
2023-02-21T08:51:29.485Z,998.02
2023-02-21T08:52:29.470Z,998.03
2023-02-21T08:53:29.445Z,998.02
2023-02-21T08:54:29.433Z,997.98
2023-02-21T08:55:29.422Z,997.99
2023-02-21T08:56:29.412Z,997.99
2023-02-21T08:57:29.405Z,997.97
2023-02-21T08:58:29.381Z,997.99
2023-02-21T08:59:29.408Z,997.94
2023-02-21T09:00:29.361Z,997.98
2023-02-21T09:01:29.426Z,998.00
2023-02-21T09:02:29.334Z,997.96
2023-02-21T09:03:29.329Z,998.02
2023-02-21T09:04:29.309Z,997.99
2023-02-21T09:05:29.297Z,998.07
2023-02-21T09:06:29.292Z,998.02
2023-02-21T09:07:29.277Z,998.06
2023-02-21T09:08:29.420Z,998.02
2023-02-21T09:09:29.259Z,998.07
2023-02-21T09:10:29.295Z,998.08
2023-02-21T09:11:29.236Z,998.07
2023-02-21T09:12:29.235Z,998.09
2023-02-21T09:13:29.235Z,998.11
2023-02-21T09:14:29.213Z,998.07
2023-02-21T09:15:29.201Z,998.11
2023-02-21T09:16:29.264Z,998.06
2023-02-21T09:17:29.190Z,998.10
2023-02-21T09:18:29.184Z,998.10
2023-02-21T09:19:29.174Z,998.13
2023-02-21T09:20:29.185Z,998.12
2023-02-21T09:21:29.184Z,998.13
2023-02-21T09:22:29.159Z,998.17
2023-02-21T09:23:29.154Z,998.16
2023-02-21T09:24:29.143Z,998.12
2023-02-21T09:25:29.137Z,998.10
2023-02-21T09:26:29.132Z,998.11
2023-02-21T09:27:29.125Z,998.11
2023-02-21T09:28:29.117Z,998.12
2023-02-21T09:29:43.807Z,998.12
2023-02-21T09:30:29.122Z,998.13
2023-02-21T09:31:29.143Z,998.11
2023-02-21T09:32:29.142Z,998.06
2023-02-21T09:33:29.092Z,998.07
2023-02-21T09:34:29.089Z,998.05
2023-02-21T09:35:29.091Z,998.02
2023-02-21T09:36:29.077Z,998.06
2023-02-21T09:37:29.074Z,998.11
2023-02-21T09:38:29.070Z,998.08
2023-02-21T09:39:29.076Z,998.07
2023-02-21T09:40:29.060Z,998.07
2023-02-21T09:41:29.098Z,998.05
2023-02-21T09:42:29.054Z,998.07
2023-02-21T09:43:29.050Z,998.11
2023-02-21T09:44:29.061Z,998.11
2023-02-21T09:45:29.187Z,998.12
2023-02-21T09:46:29.050Z,998.10
2023-02-21T09:47:29.035Z,998.09
2023-02-21T09:48:29.032Z,998.14
2023-02-21T09:49:29.031Z,998.10
2023-02-21T09:50:29.031Z,998.13
2023-02-21T09:51:29.029Z,998.07
2023-02-21T09:52:29.017Z,998.07
2023-02-21T09:53:29.017Z,998.05
2023-02-21T09:54:29.016Z,998.04
2023-02-21T09:55:30.592Z,998.07
2023-02-21T09:56:29.018Z,998.05
2023-02-21T09:57:29.005Z,998.09
2023-02-21T09:58:29.004Z,998.11
2023-02-21T09:59:29.007Z,998.09
2023-02-21T10:00:28.994Z,998.14
2023-02-21T10:01:29.052Z,998.14
2023-02-21T10:02:28.990Z,998.13
2023-02-21T10:03:28.989Z,998.09
2023-02-21T10:04:29.029Z,998.11
2023-02-21T10:05:28.986Z,998.13
2023-02-21T10:06:28.987Z,998.12
2023-02-21T10:07:28.978Z,998.13
2023-02-21T10:08:28.979Z,998.14
2023-02-21T10:09:28.977Z,998.09
2023-02-21T10:10:29.003Z,998.03
2023-02-21T10:11:28.972Z,998.05
2023-02-21T10:12:28.968Z,998.11
2023-02-21T10:13:28.971Z,998.07
2023-02-21T10:14:28.966Z,998.06
2023-02-21T10:15:28.963Z,998.06
2023-02-21T10:16:29.048Z,998.05
2023-02-21T10:17:28.963Z,998.00
2023-02-21T10:18:28.953Z,998.03
2023-02-21T10:19:28.954Z,998.05
2023-02-21T10:20:28.947Z,998.03
2023-02-21T10:21:28.953Z,998.02
2023-02-21T10:22:28.942Z,998.03
2023-02-21T10:23:30.378Z,998.02
2023-02-21T10:24:28.937Z,998.00
2023-02-21T10:25:28.952Z,998.02
2023-02-21T10:26:28.962Z,998.03
2023-02-21T10:27:28.953Z,998.03
2023-02-21T10:28:28.951Z,998.05
2023-02-21T10:29:28.929Z,998.02
2023-02-21T10:30:29.106Z,998.03
2023-02-21T10:31:29.050Z,998.03
2023-02-21T10:32:28.934Z,998.00
2023-02-21T10:33:29.182Z,998.00
2023-02-21T10:34:28.918Z,997.99
2023-02-21T10:35:28.915Z,998.02
2023-02-21T10:36:28.915Z,997.98
2023-02-21T10:37:29.014Z,997.99
2023-02-21T10:38:28.904Z,998.02
2023-02-21T10:39:28.908Z,997.98
2023-02-21T10:40:28.914Z,998.00
2023-02-21T10:41:28.906Z,997.98
2023-02-21T10:42:28.900Z,997.95
2023-02-21T10:43:28.943Z,997.97
2023-02-21T10:44:28.898Z,998.04
2023-02-21T10:45:28.895Z,997.98
2023-02-21T10:46:28.938Z,997.97
2023-02-21T10:47:28.889Z,997.94
2023-02-21T10:48:28.886Z,997.90
2023-02-21T10:49:28.962Z,997.95
2023-02-21T10:50:28.890Z,997.94
2023-02-21T10:51:28.908Z,997.95
2023-02-21T10:52:28.914Z,997.92
2023-02-21T10:53:28.889Z,997.99
2023-02-21T10:54:28.890Z,997.94
2023-02-21T10:55:33.102Z,997.93
2023-02-21T10:56:28.878Z,997.92
2023-02-21T10:57:28.876Z,997.89
2023-02-21T10:58:28.884Z,997.90
2023-02-21T10:59:28.875Z,997.87
2023-02-21T11:00:28.870Z,997.85
2023-02-21T11:01:28.890Z,997.84
2023-02-21T11:02:28.895Z,997.83
2023-02-21T11:03:28.864Z,997.81
2023-02-21T11:04:28.869Z,997.87
2023-02-21T11:05:28.872Z,997.78
2023-02-21T11:06:28.865Z,997.74
2023-02-21T11:07:28.856Z,997.75
2023-02-21T11:08:28.858Z,997.73
2023-02-21T11:09:28.855Z,997.70
2023-02-21T11:10:28.858Z,997.72
2023-02-21T11:11:28.853Z,997.72
2023-02-21T11:12:28.852Z,997.69
2023-02-21T11:13:28.856Z,997.75
2023-02-21T11:14:28.850Z,997.67
2023-02-21T11:15:28.850Z,997.70
2023-02-21T11:16:28.848Z,997.68
2023-02-21T11:17:28.861Z,997.64
2023-02-21T11:18:28.845Z,997.67
2023-02-21T11:19:28.853Z,997.63
2023-02-21T11:20:28.870Z,997.68
2023-02-21T11:21:28.939Z,997.65
2023-02-21T11:22:28.852Z,997.60
2023-02-21T11:23:28.852Z,997.64
2023-02-21T11:24:28.844Z,997.54
2023-02-21T11:25:28.863Z,997.58
2023-02-21T11:26:28.846Z,997.56
2023-02-21T11:27:28.842Z,997.55
2023-02-21T11:28:28.843Z,997.56
2023-02-21T11:29:28.848Z,997.49
2023-02-21T11:30:28.902Z,997.53
2023-02-21T11:31:30.105Z,997.49
2023-02-21T11:32:28.844Z,997.46
2023-02-21T11:33:28.849Z,997.43
2023-02-21T11:34:28.846Z,997.47
2023-02-21T11:35:28.845Z,997.42
2023-02-21T11:36:28.847Z,997.49
2023-02-21T11:37:28.849Z,997.39
2023-02-21T11:38:28.916Z,997.39
2023-02-21T11:39:28.861Z,997.36
2023-02-21T11:40:28.854Z,997.36
2023-02-21T11:41:28.850Z,997.36
2023-02-21T11:42:28.873Z,997.38
2023-02-21T11:43:28.879Z,997.38
2023-02-21T11:44:28.852Z,997.36
2023-02-21T11:45:28.856Z,997.35
2023-02-21T11:46:28.848Z,997.35
2023-02-21T11:47:28.859Z,997.35
2023-02-21T11:48:28.868Z,997.34
2023-02-21T11:49:28.865Z,997.27
2023-02-21T11:50:28.871Z,997.31
2023-02-21T11:51:28.860Z,997.26
2023-02-21T11:52:28.864Z,997.24
2023-02-21T11:53:28.859Z,997.25
2023-02-21T11:54:28.858Z,997.24
2023-02-21T11:55:28.869Z,997.20
2023-02-21T11:56:28.865Z,997.20
2023-02-21T11:57:28.869Z,997.18
2023-02-21T11:58:28.866Z,997.10
2023-02-21T11:59:28.863Z,997.10
2023-02-21T12:00:28.870Z,997.06
2023-02-21T12:01:28.870Z,997.03
2023-02-21T12:02:28.936Z,996.97
2023-02-21T12:03:28.876Z,996.96
2023-02-21T12:04:28.869Z,996.91
2023-02-21T12:05:28.921Z,996.92
2023-02-21T12:06:28.881Z,996.91
2023-02-21T12:07:28.864Z,996.85
2023-02-21T12:08:28.864Z,996.83
2023-02-21T12:09:28.877Z,996.79
2023-02-21T12:10:28.864Z,996.80
2023-02-21T12:11:28.863Z,996.79
2023-02-21T12:12:28.870Z,996.72
2023-02-21T12:13:28.865Z,996.71
2023-02-21T12:14:29.656Z,996.72
2023-02-21T18:01:02.896Z,994.53
2023-02-21T18:02:02.297Z,994.54
2023-02-21T18:06:03.389Z,994.65
2023-02-21T18:07:03.098Z,994.63
2023-02-21T18:22:25.652Z,994.58
2023-02-21T18:23:11.965Z,994.55
2023-02-21T18:46:20.755Z,994.55
2023-02-21T18:47:20.645Z,994.52
2023-02-21T18:49:27.751Z,994.51
2023-02-21T18:50:24.836Z,994.51
2023-02-21T18:51:25.006Z,994.49
2023-02-21T18:52:24.956Z,994.47
2023-02-21T19:04:34.358Z,994.40
2023-02-21T19:05:33.784Z,994.43
2023-02-21T19:18:23.389Z,994.39
2023-02-21T19:19:22.780Z,994.39
2023-02-21T19:22:58.018Z,994.40
2023-02-21T19:23:57.834Z,994.36
2023-02-21T19:24:57.718Z,994.40
2023-02-21T19:36:50.506Z,994.33
2023-02-21T19:42:49.221Z,994.38
2023-02-21T19:43:48.752Z,994.36
2023-02-21T19:46:35.336Z,994.35
2023-02-21T19:47:38.425Z,994.33
2023-02-21T19:49:32.655Z,994.36
2023-02-21T19:50:32.694Z,994.37
2023-02-21T19:51:32.612Z,994.38
2023-02-21T19:55:16.531Z,994.40
2023-02-21T19:56:16.872Z,994.41
2023-02-21T20:20:03.585Z,994.25
2023-02-21T20:21:03.129Z,994.26
2023-02-21T20:25:02.580Z,994.29
2023-02-21T20:38:31.162Z,994.23
2023-02-21T20:39:30.888Z,994.23
2023-02-21T20:44:26.955Z,994.25
2023-02-21T20:50:55.644Z,994.21
2023-02-21T21:13:45.218Z,994.11
2023-02-21T21:14:45.200Z,994.09
2023-02-21T21:15:45.351Z,994.13
2023-02-21T21:16:45.221Z,994.11
2023-02-21T21:17:45.511Z,994.10
2023-02-21T21:37:43.523Z,994.15
2023-02-21T21:49:42.307Z,994.03
2023-02-21T21:51:29.838Z,994.03
2023-02-21T21:52:25.037Z,994.05
2023-02-21T22:26:13.211Z,993.82
2023-02-21T22:31:08.713Z,993.91
2023-02-21T22:54:01.286Z,993.71
2023-02-21T22:55:01.230Z,993.72